createdAt,value
2023-02-14T00:01:12.927Z,38.90
2023-02-14T00:03:40.180Z,43.03
2023-02-14T00:06:09.087Z,37.93
2023-02-14T00:08:36.922Z,37.80
2023-02-14T00:11:05.695Z,42.20
2023-02-14T00:13:32.686Z,45.57
2023-02-14T00:15:59.783Z,42.27
2023-02-14T00:18:46.792Z,40.03
2023-02-14T00:21:13.770Z,37.80
2023-02-14T00:23:41.017Z,36.37
2023-02-14T00:26:14.777Z,41.97
2023-02-14T00:28:45.079Z,41.30
2023-02-14T00:31:12.322Z,39.57
2023-02-14T00:33:39.369Z,40.03
2023-02-14T00:36:07.606Z,39.57
2023-02-14T00:38:34.972Z,36.70
2023-02-14T00:41:02.480Z,37.13
2023-02-14T00:43:29.639Z,40.70
2023-02-14T00:45:56.697Z,38.93
2023-02-14T00:48:23.602Z,41.47
2023-02-14T00:50:50.609Z,38.53
2023-02-14T00:53:17.604Z,36.80
2023-02-14T00:55:47.407Z,39.60
2023-02-14T00:58:14.422Z,36.97
2023-02-14T01:00:41.379Z,38.60
2023-02-14T01:03:08.480Z,43.53
2023-02-14T01:05:35.405Z,36.00
2023-02-14T01:08:02.376Z,40.60
2023-02-14T01:10:29.536Z,42.13
2023-02-14T01:12:56.606Z,38.37
2023-02-14T01:15:23.631Z,45.03
2023-02-14T01:17:50.427Z,40.83
2023-02-14T01:20:17.390Z,40.13
2023-02-14T01:22:44.488Z,44.13
2023-02-14T01:25:11.605Z,39.90
2023-02-14T01:27:38.491Z,42.37
2023-02-14T01:30:06.250Z,40.57
2023-02-14T01:32:34.333Z,42.47
2023-02-14T01:35:01.367Z,38.80
2023-02-14T01:37:29.700Z,39.33
2023-02-14T01:39:56.489Z,42.77
2023-02-14T01:42:23.331Z,43.20
2023-02-14T01:44:50.232Z,39.37
2023-02-14T01:47:17.883Z,43.43
2023-02-14T01:49:52.074Z,39.77
2023-02-14T01:52:31.770Z,43.93
2023-02-14T01:55:02.722Z,39.10
2023-02-14T01:57:36.865Z,43.33
2023-02-14T02:00:24.073Z,44.43
2023-02-14T02:02:51.383Z,42.13
2023-02-14T02:05:23.928Z,39.03
2023-02-14T02:07:53.213Z,40.27
2023-02-14T02:10:20.353Z,40.60
2023-02-14T02:12:49.540Z,42.77
2023-02-14T02:15:16.708Z,41.30
2023-02-14T02:17:49.804Z,42.20
2023-02-14T02:20:34.152Z,37.47
2023-02-14T02:23:26.615Z,41.07
2023-02-14T02:26:04.452Z,40.83
2023-02-14T02:28:40.130Z,40.03
2023-02-14T02:31:26.216Z,44.43
2023-02-14T02:34:34.591Z,42.07
2023-02-14T02:37:13.713Z,42.07
2023-02-14T02:40:06.327Z,41.87
2023-02-14T02:43:10.507Z,44.07
2023-02-14T02:46:14.985Z,40.47
2023-02-14T02:48:53.845Z,46.60
2023-02-14T02:51:52.260Z,43.17
2023-02-14T02:54:50.329Z,46.17
2023-02-14T02:57:26.613Z,41.63
2023-02-14T02:59:56.356Z,42.60
2023-02-14T03:02:33.717Z,48.23
2023-02-14T03:05:05.775Z,44.57
2023-02-14T03:07:37.063Z,40.67
2023-02-14T03:10:16.595Z,46.53
2023-02-14T03:12:57.804Z,45.17
2023-02-14T03:15:39.781Z,45.07
2023-02-14T03:18:25.027Z,43.03
2023-02-14T03:21:29.298Z,42.87
2023-02-14T03:24:15.218Z,47.30
2023-02-14T03:26:53.665Z,40.00
2023-02-14T03:29:29.796Z,42.33
2023-02-14T03:32:21.172Z,46.37
2023-02-14T03:35:01.844Z,43.00
2023-02-14T03:37:48.287Z,41.33
2023-02-14T03:40:21.102Z,42.77
2023-02-14T03:43:03.214Z,46.63
2023-02-14T03:45:34.859Z,49.90
2023-02-14T03:48:07.997Z,47.63
2023-02-14T03:50:39.014Z,46.40
2023-02-14T03:53:09.747Z,43.53
2023-02-14T03:55:55.428Z,45.23
2023-02-14T03:58:30.025Z,43.93
2023-02-14T04:01:04.658Z,44.50
2023-02-14T04:03:33.541Z,45.07
2023-02-14T04:06:01.005Z,47.73
2023-02-14T04:08:30.118Z,44.40
2023-02-14T04:11:00.810Z,44.23
2023-02-14T04:13:28.215Z,44.90
2023-02-14T04:15:55.327Z,47.03
2023-02-14T04:18:41.103Z,47.27
2023-02-14T04:21:16.528Z,47.53
2023-02-14T04:23:43.712Z,42.70
2023-02-14T04:26:13.869Z,45.33
2023-02-14T04:28:40.857Z,42.87
2023-02-14T04:31:07.965Z,47.97
2023-02-14T04:33:35.030Z,44.47
2023-02-14T04:36:02.083Z,51.73
2023-02-14T04:38:29.416Z,52.03
2023-02-14T04:40:56.268Z,44.80
2023-02-14T04:43:23.299Z,47.33
2023-02-14T04:45:50.079Z,46.83
2023-02-14T04:48:17.095Z,46.23
2023-02-14T04:50:44.022Z,46.77
2023-02-14T04:53:11.031Z,45.57
2023-02-14T04:55:40.045Z,46.07
2023-02-14T04:58:09.545Z,54.90
2023-02-14T05:00:36.577Z,50.30
2023-02-14T05:03:03.658Z,49.00
2023-02-14T05:05:30.579Z,53.77
2023-02-14T05:07:57.544Z,53.00
2023-02-14T05:10:24.566Z,54.67
2023-02-14T05:12:51.431Z,51.83
2023-02-14T05:15:18.579Z,52.43
2023-02-14T05:17:45.451Z,51.63
2023-02-14T05:20:12.486Z,56.13
2023-02-14T05:22:39.343Z,50.40
2023-02-14T05:25:06.794Z,52.03
2023-02-14T05:27:33.860Z,48.73
2023-02-14T05:30:00.690Z,55.03
2023-02-14T05:32:27.609Z,51.60
2023-02-14T05:34:54.542Z,50.17
2023-02-14T05:37:21.611Z,57.60
2023-02-14T05:39:48.638Z,54.13
2023-02-14T05:42:15.408Z,58.60
2023-02-14T05:44:42.653Z,60.80
2023-02-14T05:47:11.048Z,54.97
2023-02-14T05:49:39.750Z,54.20
2023-02-14T05:52:06.945Z,58.53
2023-02-14T05:54:33.975Z,55.93
2023-02-14T05:57:00.843Z,48.53
2023-02-14T05:59:27.655Z,46.90
2023-02-14T06:01:54.675Z,49.30
2023-02-14T06:04:21.739Z,46.30
2023-02-14T06:06:48.600Z,46.97
2023-02-14T06:09:15.523Z,52.67
2023-02-14T06:11:42.400Z,50.03
2023-02-14T06:14:09.365Z,49.50
2023-02-14T06:16:36.681Z,48.47
2023-02-14T06:19:03.823Z,49.43
2023-02-14T06:21:30.724Z,52.60
2023-02-14T06:23:57.912Z,51.83
2023-02-14T06:26:28.086Z,48.67
2023-02-14T06:28:59.383Z,47.27
2023-02-14T06:31:26.729Z,50.87
2023-02-14T06:33:54.086Z,47.40
2023-02-14T06:36:22.028Z,51.27
2023-02-14T06:38:49.553Z,48.27
2023-02-14T06:41:19.770Z,49.20
2023-02-14T06:43:50.400Z,48.83
2023-02-14T06:46:18.865Z,44.00
2023-02-14T06:48:46.080Z,50.67
2023-02-14T06:51:13.771Z,48.20
2023-02-14T06:53:40.826Z,51.53
2023-02-14T06:56:08.085Z,49.27
2023-02-14T06:58:39.728Z,54.07
2023-02-14T07:01:06.855Z,57.80
2023-02-14T07:03:33.918Z,51.13
2023-02-14T07:06:00.988Z,50.87
2023-02-14T07:08:28.208Z,47.83
2023-02-14T07:10:59.450Z,49.57
2023-02-14T07:13:27.117Z,49.10
2023-02-14T07:15:54.229Z,47.53
2023-02-14T07:18:21.394Z,50.13
2023-02-14T07:20:50.174Z,43.37
2023-02-14T07:23:17.131Z,50.97
2023-02-14T07:25:44.186Z,46.97
2023-02-14T07:28:11.345Z,44.27
2023-02-14T07:30:38.233Z,46.17
2023-02-14T07:33:05.260Z,48.13
2023-02-14T07:35:32.210Z,52.17
2023-02-14T07:37:59.397Z,47.03
2023-02-14T07:40:26.362Z,47.03
2023-02-14T07:42:55.069Z,53.27
2023-02-14T07:45:22.935Z,46.73
2023-02-14T07:47:52.055Z,48.33
2023-02-14T07:50:20.076Z,42.57
2023-02-14T07:52:47.348Z,51.07
2023-02-14T07:55:14.784Z,48.30
2023-02-14T07:57:41.623Z,44.17
2023-02-14T08:00:09.428Z,43.07
2023-02-14T08:02:36.318Z,47.47
2023-02-14T08:05:03.413Z,43.60
2023-02-14T08:07:30.381Z,46.73
2023-02-14T08:09:57.260Z,44.03
2023-02-14T08:12:42.546Z,40.40
2023-02-14T08:15:27.859Z,41.37
2023-02-14T08:17:56.784Z,41.13
2023-02-14T08:20:23.748Z,38.20
2023-02-14T08:22:50.568Z,37.17
2023-02-14T08:25:17.628Z,34.67
2023-02-14T08:27:44.558Z,32.03
2023-02-14T08:30:12.164Z,33.60
2023-02-14T08:32:39.748Z,30.73
2023-02-14T08:35:07.321Z,32.00
2023-02-14T08:37:36.650Z,30.10
2023-02-14T08:40:03.806Z,30.83
2023-02-14T08:42:31.338Z,30.40
2023-02-14T08:44:58.270Z,30.60
2023-02-14T08:47:25.387Z,28.97
2023-02-14T08:49:53.790Z,29.87
2023-02-14T08:52:20.738Z,27.47
2023-02-14T08:54:47.502Z,29.77
2023-02-14T08:57:15.836Z,27.77
2023-02-14T08:59:42.959Z,27.43
2023-02-14T09:02:13.793Z,29.60
2023-02-14T09:04:40.893Z,26.30
2023-02-14T09:07:08.300Z,28.90
2023-02-14T09:09:37.832Z,30.13
2023-02-14T09:12:07.242Z,28.97
2023-02-14T09:14:39.300Z,25.97
2023-02-14T09:17:06.908Z,30.17
2023-02-14T09:19:34.790Z,29.80
2023-02-14T09:22:04.192Z,29.70
2023-02-14T09:24:32.622Z,26.60
2023-02-14T09:27:00.134Z,26.33
2023-02-14T09:29:28.305Z,27.10
2023-02-14T09:31:57.271Z,27.83
2023-02-14T09:34:24.434Z,27.60
2023-02-14T09:37:10.219Z,30.77
2023-02-14T09:39:39.181Z,27.93
2023-02-14T09:42:38.970Z,26.43
2023-02-14T09:45:22.821Z,31.43
2023-02-14T09:47:54.410Z,23.37
2023-02-14T09:50:30.701Z,28.40
2023-02-14T09:53:03.057Z,23.57
2023-02-14T09:55:39.794Z,25.90
2023-02-14T09:58:19.909Z,25.30
2023-02-14T10:00:56.450Z,24.67
2023-02-14T10:03:54.596Z,24.93
2023-02-14T10:06:48.102Z,24.80
2023-02-14T10:09:38.777Z,23.43
2023-02-14T10:12:14.637Z,22.87
2023-02-14T10:14:41.992Z,19.20
2023-02-14T10:17:14.230Z,23.13
2023-02-14T10:19:51.910Z,22.70
2023-02-14T10:22:29.027Z,23.73
2023-02-14T10:25:04.948Z,22.00
2023-02-14T10:27:40.497Z,21.90
2023-02-14T10:30:13.702Z,23.40
2023-02-14T10:33:04.969Z,23.60
2023-02-14T10:35:48.938Z,24.07
2023-02-14T10:38:48.973Z,26.60
2023-02-14T10:41:23.933Z,26.80
2023-02-14T10:44:24.146Z,23.17
2023-02-14T10:46:54.180Z,23.93
2023-02-14T10:49:46.296Z,24.53
2023-02-14T10:52:24.332Z,24.47
2023-02-14T10:54:56.242Z,24.97
2023-02-14T10:57:36.703Z,26.40
2023-02-14T11:00:07.677Z,26.43
2023-02-14T11:02:44.059Z,27.30
2023-02-14T11:05:46.537Z,25.83
2023-02-14T11:08:39.007Z,24.67
2023-02-14T11:11:22.482Z,26.90
2023-02-14T11:13:49.499Z,26.30
2023-02-14T11:16:32.765Z,26.40
2023-02-14T11:19:14.491Z,25.43
2023-02-14T11:21:44.499Z,24.80
2023-02-14T11:24:31.679Z,26.87
2023-02-14T11:27:02.787Z,23.93
2023-02-14T11:29:53.196Z,26.13
2023-02-14T11:32:32.003Z,25.13
2023-02-14T11:35:01.689Z,26.03
2023-02-14T11:37:39.973Z,29.37
2023-02-14T11:40:08.058Z,25.80
2023-02-14T11:42:43.055Z,24.60
2023-02-14T11:45:35.912Z,24.17
2023-02-14T11:48:37.371Z,28.23
2023-02-14T11:51:06.778Z,26.83
2023-02-14T11:53:47.394Z,30.70
2023-02-14T11:56:17.775Z,26.83
2023-02-14T11:58:56.776Z,27.83
2023-02-14T12:01:29.221Z,28.50
2023-02-14T12:04:00.215Z,27.67
2023-02-14T12:06:30.688Z,27.57
2023-02-14T12:09:35.417Z,27.93
2023-02-14T12:12:15.312Z,27.37
2023-02-14T12:14:42.272Z,28.57
2023-02-14T12:17:11.915Z,26.30
2023-02-14T12:20:03.018Z,28.90
2023-02-14T12:22:57.923Z,28.30
2023-02-14T12:25:30.325Z,27.93
2023-02-14T12:28:07.764Z,25.83
2023-02-14T12:30:35.792Z,29.37
2023-02-14T12:33:05.405Z,29.93
2023-02-14T12:35:52.602Z,28.33
2023-02-14T12:38:41.275Z,27.17
2023-02-14T12:41:23.200Z,27.10
2023-02-14T12:43:55.555Z,28.57
2023-02-14T12:46:52.086Z,28.40
2023-02-14T12:49:37.970Z,28.87
2023-02-14T12:52:14.372Z,25.67
2023-02-14T12:55:10.168Z,30.30
2023-02-14T12:58:18.586Z,27.33
2023-02-14T13:01:09.527Z,28.80
2023-02-14T13:03:44.441Z,27.93
2023-02-14T13:06:28.283Z,28.20
2023-02-14T13:09:13.705Z,27.90
2023-02-14T13:11:55.703Z,29.27
2023-02-14T13:14:51.756Z,25.43
2023-02-14T13:17:34.956Z,27.83
2023-02-14T13:20:48.425Z,27.67
2023-02-14T13:23:21.256Z,26.50
2023-02-14T13:25:58.089Z,26.50
2023-02-14T13:28:27.470Z,30.97
2023-02-14T13:30:56.283Z,29.00
2023-02-14T13:33:38.366Z,31.30
2023-02-14T13:36:14.134Z,32.93
2023-02-14T13:38:52.417Z,33.27
2023-02-14T13:41:21.210Z,27.20
2023-02-14T13:44:08.575Z,27.83
2023-02-14T13:46:36.253Z,28.47
2023-02-14T13:49:24.220Z,30.70
2023-02-14T13:51:57.751Z,30.80
2023-02-14T13:54:49.030Z,31.43
2023-02-14T13:57:36.881Z,25.00
2023-02-14T14:00:19.133Z,28.53
2023-02-14T14:02:48.458Z,29.17
2023-02-14T14:05:30.818Z,32.00
2023-02-14T14:08:28.800Z,29.17
2023-02-14T14:11:02.341Z,27.13
2023-02-14T14:13:41.562Z,28.40
2023-02-14T14:16:36.773Z,30.77
2023-02-14T14:19:29.327Z,27.67
2023-02-14T14:22:15.177Z,26.13
2023-02-14T14:24:53.616Z,30.77
2023-02-14T14:27:24.943Z,31.03
2023-02-14T14:29:55.681Z,29.03
2023-02-14T14:32:37.518Z,26.77
2023-02-14T14:35:25.031Z,28.43
2023-02-14T14:37:57.204Z,31.27
2023-02-14T14:40:27.510Z,26.47
2023-02-14T14:42:58.695Z,27.73
2023-02-14T14:45:28.559Z,28.87
2023-02-14T14:48:08.699Z,23.17
2023-02-14T14:50:36.853Z,27.20
2023-02-14T14:53:21.782Z,30.00
2023-02-14T14:55:52.283Z,27.07
2023-02-14T14:58:36.093Z,28.70
2023-02-14T15:01:04.454Z,29.27
2023-02-14T15:03:34.036Z,28.90
2023-02-14T15:06:17.928Z,27.33
2023-02-14T15:08:45.519Z,28.03
2023-02-14T15:11:50.712Z,28.20
2023-02-14T15:14:21.532Z,26.67
2023-02-14T15:16:57.922Z,26.53
2023-02-14T15:19:41.439Z,32.50
2023-02-14T15:22:34.062Z,31.53
2023-02-14T15:25:01.022Z,29.73
2023-02-14T15:27:31.196Z,30.83
2023-02-14T15:30:01.240Z,31.90
2023-02-14T15:32:38.515Z,27.10
2023-02-14T15:35:07.027Z,28.30
2023-02-14T15:37:34.809Z,28.33
2023-02-14T15:40:02.628Z,29.60
2023-02-14T15:42:34.877Z,28.67
2023-02-14T15:45:24.480Z,28.73
2023-02-14T15:47:54.663Z,27.80
2023-02-14T15:50:26.619Z,27.33
2023-02-14T15:53:05.675Z,30.03
2023-02-14T15:55:33.833Z,28.83
2023-02-14T15:58:07.326Z,29.73
2023-02-14T16:00:35.878Z,28.33
2023-02-14T16:03:06.615Z,29.03
2023-02-14T16:05:33.722Z,25.90
2023-02-14T16:08:06.479Z,31.23
2023-02-14T16:10:35.296Z,32.50
2023-02-14T16:13:06.936Z,26.30
2023-02-14T16:15:39.058Z,29.77
2023-02-14T16:18:18.936Z,29.73
2023-02-14T16:20:49.023Z,32.87
2023-02-14T16:23:16.008Z,30.33
2023-02-14T16:25:42.885Z,27.50
2023-02-14T16:28:10.109Z,29.27
2023-02-14T16:30:39.585Z,27.23
2023-02-14T16:33:11.483Z,30.87
2023-02-14T16:35:40.578Z,31.20
2023-02-14T16:38:15.819Z,31.97
2023-02-14T16:40:52.737Z,31.40
2023-02-14T16:43:21.180Z,29.47
2023-02-14T16:45:48.784Z,28.03
2023-02-14T16:48:18.626Z,32.73
2023-02-14T16:50:46.474Z,30.73
2023-02-14T16:53:24.280Z,33.37
2023-02-14T16:55:53.623Z,34.17
2023-02-14T16:58:23.342Z,33.10
2023-02-14T17:00:50.378Z,28.27
2023-02-14T17:03:17.368Z,34.30
2023-02-14T17:05:44.621Z,33.40
2023-02-14T17:08:13.854Z,34.13
2023-02-14T17:10:43.652Z,35.23
2023-02-14T17:13:11.793Z,30.40
2023-02-14T17:15:40.070Z,35.83
2023-02-14T17:18:13.146Z,33.13
2023-02-14T17:20:40.733Z,34.43
2023-02-14T17:23:07.701Z,35.93
2023-02-14T17:25:35.502Z,32.83
2023-02-14T17:28:02.383Z,35.40
2023-02-14T17:30:29.554Z,35.67
2023-02-14T17:32:56.597Z,34.10
2023-02-14T17:35:29.047Z,35.00
2023-02-14T17:37:55.828Z,33.33
2023-02-14T17:40:22.883Z,34.70
2023-02-14T17:42:49.854Z,34.97
2023-02-14T17:45:16.766Z,35.50
2023-02-14T17:47:47.193Z,36.47
2023-02-14T17:50:15.973Z,36.73
2023-02-14T17:52:43.085Z,39.43
2023-02-14T17:55:10.101Z,36.10
2023-02-14T17:57:39.347Z,39.37
2023-02-14T18:00:07.223Z,36.37
2023-02-14T18:02:34.427Z,30.77
2023-02-14T18:05:01.552Z,34.73
2023-02-14T18:07:29.168Z,36.00
2023-02-14T18:09:58.774Z,32.73
2023-02-14T18:12:25.882Z,35.07
2023-02-14T18:14:53.741Z,37.47
2023-02-14T18:17:20.751Z,33.37
2023-02-14T18:19:52.932Z,36.33
2023-02-14T18:22:20.305Z,38.23
2023-02-14T18:24:47.310Z,36.63
2023-02-14T18:27:16.247Z,33.03
2023-02-14T18:29:43.105Z,35.13
2023-02-14T18:32:12.933Z,39.60
2023-02-14T18:34:39.790Z,38.00
2023-02-14T18:37:06.680Z,39.30
2023-02-14T18:39:34.032Z,39.30
2023-02-14T18:42:01.693Z,38.27
2023-02-14T18:44:29.546Z,43.00
2023-02-14T18:46:56.583Z,38.77
2023-02-14T18:49:26.273Z,39.70
2023-02-14T18:51:53.700Z,38.23
2023-02-14T18:54:20.766Z,39.40
2023-02-14T18:56:50.990Z,38.23
2023-02-14T18:59:18.193Z,38.03
2023-02-14T19:01:46.024Z,39.10
2023-02-14T19:04:13.687Z,40.17
2023-02-14T19:06:42.184Z,39.63
2023-02-14T19:09:16.337Z,35.20
2023-02-14T19:11:43.883Z,37.87
2023-02-14T19:14:12.801Z,41.23
2023-02-14T19:16:44.301Z,37.80
2023-02-14T19:19:11.645Z,36.37
2023-02-14T19:21:38.948Z,41.10
2023-02-14T19:24:07.236Z,42.93
2023-02-14T19:26:40.426Z,38.47
2023-02-14T19:29:11.793Z,36.63
2023-02-14T19:31:41.798Z,39.47
2023-02-14T19:34:17.046Z,36.93
2023-02-14T19:36:44.368Z,38.50
2023-02-14T19:39:12.940Z,37.47
2023-02-14T19:41:40.459Z,38.53
2023-02-14T19:44:09.724Z,43.47
2023-02-14T19:46:38.376Z,41.07
2023-02-14T19:49:05.770Z,37.27
2023-02-14T19:51:36.189Z,38.80
2023-02-14T19:54:07.252Z,38.97
2023-02-14T19:56:45.275Z,37.70
2023-02-14T19:59:16.696Z,35.27
2023-02-14T20:01:48.999Z,39.23
2023-02-14T20:04:19.851Z,38.27
2023-02-14T20:06:47.082Z,40.00
2023-02-14T20:09:15.152Z,34.60
2023-02-14T20:11:51.639Z,37.47
2023-02-14T20:14:26.938Z,36.57
2023-02-14T20:16:55.667Z,40.67
2023-02-14T20:19:27.147Z,38.27
2023-02-14T20:21:54.230Z,38.40
2023-02-14T20:24:26.698Z,45.73
2023-02-14T20:26:54.064Z,43.20
2023-02-14T20:29:22.839Z,45.17
2023-02-14T20:31:55.953Z,46.90
2023-02-14T20:34:23.080Z,42.07
2023-02-14T20:36:53.351Z,39.17
2023-02-14T20:39:23.738Z,37.53
2023-02-14T20:41:52.556Z,37.73
2023-02-14T20:44:21.818Z,32.80
2023-02-14T20:46:51.929Z,36.97
2023-02-14T20:49:20.367Z,37.87
2023-02-14T20:51:49.806Z,43.40
2023-02-14T20:54:21.029Z,44.30
2023-02-14T20:56:48.657Z,41.27
2023-02-14T20:59:15.526Z,48.40
2023-02-14T21:01:43.024Z,44.50
2023-02-14T21:04:09.958Z,46.10
2023-02-14T21:06:39.633Z,43.17
2023-02-14T21:09:06.898Z,50.27
2023-02-14T21:11:33.727Z,48.13
2023-02-14T21:14:01.850Z,43.20
2023-02-14T21:16:30.422Z,44.00
2023-02-14T21:19:01.618Z,45.47
2023-02-14T21:21:36.747Z,46.20
2023-02-14T21:24:06.649Z,44.87
2023-02-14T21:26:33.604Z,37.60
2023-02-14T21:29:01.846Z,36.30
2023-02-14T21:31:29.005Z,41.90
2023-02-14T21:33:58.483Z,39.53
2023-02-14T21:36:27.601Z,40.27
2023-02-14T21:38:59.159Z,39.93
2023-02-14T21:41:29.284Z,35.27
2023-02-14T21:43:57.621Z,44.40
2023-02-14T21:46:31.284Z,43.93
2023-02-14T21:49:21.995Z,43.40
2023-02-14T21:51:49.457Z,38.70
2023-02-14T21:54:16.808Z,40.27
2023-02-14T21:56:44.312Z,42.60
2023-02-14T21:59:11.819Z,40.43
2023-02-14T22:01:41.431Z,35.33
2023-02-14T22:04:10.931Z,37.50
2023-02-14T22:06:40.109Z,40.30
2023-02-14T22:09:08.052Z,35.83
2023-02-14T22:11:35.661Z,39.40
2023-02-14T22:14:02.638Z,36.03
2023-02-14T22:16:29.601Z,31.40
2023-02-14T22:18:56.598Z,29.20
2023-02-14T22:21:25.416Z,34.83
2023-02-14T22:23:53.338Z,37.90
2023-02-14T22:26:28.989Z,40.77
2023-02-14T22:28:59.370Z,29.77
2023-02-14T22:31:29.597Z,33.97
2023-02-14T22:33:56.696Z,38.90
2023-02-14T22:36:23.626Z,37.63
2023-02-14T22:38:50.666Z,37.03
2023-02-14T22:41:25.440Z,42.97
2023-02-14T22:43:55.752Z,38.57
2023-02-14T22:46:26.012Z,33.87
2023-02-14T22:48:54.295Z,38.57
2023-02-14T22:51:27.227Z,35.77
2023-02-14T22:54:00.700Z,44.33
2023-02-14T22:56:34.604Z,45.43
2023-02-14T22:59:07.340Z,51.00
2023-02-14T23:01:35.993Z,44.77
2023-02-14T23:04:03.887Z,44.20
2023-02-14T23:06:33.330Z,45.83
2023-02-14T23:09:00.961Z,40.50
2023-02-14T23:11:33.169Z,38.70
2023-02-14T23:14:19.124Z,44.60
2023-02-14T23:17:05.173Z,44.47
2023-02-14T23:19:53.063Z,42.70
2023-02-14T23:22:40.648Z,44.37
2023-02-14T23:25:10.641Z,47.97
2023-02-14T23:27:43.692Z,46.03
2023-02-14T23:30:14.981Z,43.50
2023-02-14T23:32:42.454Z,44.77
2023-02-14T23:35:09.373Z,46.00
2023-02-14T23:37:36.197Z,38.53
2023-02-14T23:40:04.145Z,41.40
2023-02-14T23:42:31.162Z,42.00
2023-02-14T23:45:18.101Z,43.50
2023-02-14T23:47:45.123Z,42.43
2023-02-14T23:50:15.040Z,42.33
2023-02-14T23:52:42.511Z,40.43
2023-02-14T23:55:09.630Z,39.97
2023-02-14T23:57:37.188Z,45.50
